sensor_id;sensor_type;location;lat;lon;timestamp;P1;durP1;ratioP1;P2;durP2;ratioP2
63534;SDS011;55128;50.230;18.944;2023-08-07T00:04:01;5.55;;;5.05;;
63534;SDS011;55128;50.230;18.944;2023-08-07T00:09:01;5.07;;;4.50;;
63534;SDS011;55128;50.230;18.944;2023-08-07T00:14:03;6.22;;;4.93;;
63534;SDS011;55128;50.230;18.944;2023-08-07T00:19:03;6.10;;;4.93;;
63534;SDS011;55128;50.230;18.944;2023-08-07T00:24:03;7.97;;;4.90;;
63534;SDS011;55128;50.230;18.944;2023-08-07T00:29:04;5.35;;;4.85;;
63534;SDS011;55128;50.230;18.944;2023-08-07T00:34:04;5.40;;;4.90;;
63534;SDS011;55128;50.230;18.944;2023-08-07T00:39:05;5.93;;;5.30;;
63534;SDS011;55128;50.230;18.944;2023-08-07T00:44:05;7.27;;;5.50;;
63534;SDS011;55128;50.230;18.944;2023-08-07T00:49:06;6.50;;;5.88;;
63534;SDS011;55128;50.230;18.944;2023-08-07T00:54:09;8.40;;;6.38;;
63534;SDS011;55128;50.230;18.944;2023-08-07T00:59:12;9.02;;;6.45;;
63534;SDS011;55128;50.230;18.944;2023-08-07T01:04:13;7.40;;;6.70;;
63534;SDS011;55128;50.230;18.944;2023-08-07T01:09:14;8.75;;;6.38;;
63534;SDS011;55128;50.230;18.944;2023-08-07T01:19:24;6.80;;;6.20;;
63534;SDS011;55128;50.230;18.944;2023-08-07T01:24:26;6.95;;;6.15;;
63534;SDS011;55128;50.230;18.944;2023-08-07T01:29:29;7.50;;;6.53;;
63534;SDS011;55128;50.230;18.944;2023-08-07T01:34:37;7.18;;;6.47;;
63534;SDS011;55128;50.230;18.944;2023-08-07T01:39:41;9.63;;;7.90;;
63534;SDS011;55128;50.230;18.944;2023-08-07T01:44:42;7.68;;;6.70;;
63534;SDS011;55128;50.230;18.944;2023-08-07T01:49:42;8.68;;;6.82;;
63534;SDS011;55128;50.230;18.944;2023-08-07T01:54:43;8.68;;;7.65;;
63534;SDS011;55128;50.230;18.944;2023-08-07T01:59:43;8.82;;;7.97;;
63534;SDS011;55128;50.230;18.944;2023-08-07T02:04:44;10.98;;;7.82;;
63534;SDS011;55128;50.230;18.944;2023-08-07T02:09:45;9.33;;;7.63;;
63534;SDS011;55128;50.230;18.944;2023-08-07T02:14:45;10.30;;;8.93;;
63534;SDS011;55128;50.230;18.944;2023-08-07T02:19:45;9.30;;;8.40;;
63534;SDS011;55128;50.230;18.944;2023-08-07T02:24:46;9.70;;;8.70;;
63534;SDS011;55128;50.230;18.944;2023-08-07T02:29:46;9.85;;;8.85;;
63534;SDS011;55128;50.230;18.944;2023-08-07T02:34:46;9.75;;;8.75;;
63534;SDS011;55128;50.230;18.944;2023-08-07T02:39:47;8.80;;;7.90;;
63534;SDS011;55128;50.230;18.944;2023-08-07T02:44:47;8.40;;;7.60;;
63534;SDS011;55128;50.230;18.944;2023-08-07T02:49:48;12.25;;;8.43;;
63534;SDS011;55128;50.230;18.944;2023-08-07T02:54:48;8.20;;;7.40;;
63534;SDS011;55128;50.230;18.944;2023-08-07T02:59:48;8.80;;;6.63;;
63534;SDS011;55128;50.230;18.944;2023-08-07T03:04:49;7.33;;;6.63;;
63534;SDS011;55128;50.230;18.944;2023-08-07T03:09:49;8.17;;;6.23;;
63534;SDS011;55128;50.230;18.944;2023-08-07T03:14:49;7.10;;;6.40;;
63534;SDS011;55128;50.230;18.944;2023-08-07T03:19:50;7.20;;;6.00;;
63534;SDS011;55128;50.230;18.944;2023-08-07T03:24:50;7.40;;;6.67;;
63534;SDS011;55128;50.230;18.944;2023-08-07T03:29:51;7.40;;;6.13;;
63534;SDS011;55128;50.230;18.944;2023-08-07T03:34:51;6.60;;;5.90;;
63534;SDS011;55128;50.230;18.944;2023-08-07T03:39:51;7.77;;;7.07;;
63534;SDS011;55128;50.230;18.944;2023-08-07T03:44:52;8.52;;;7.72;;
63534;SDS011;55128;50.230;18.944;2023-08-07T03:49:52;9.68;;;8.60;;
63534;SDS011;55128;50.230;18.944;2023-08-07T03:54:52;9.27;;;7.77;;
63534;SDS011;55128;50.230;18.944;2023-08-07T03:59:53;8.15;;;7.35;;
63534;SDS011;55128;50.230;18.944;2023-08-07T04:04:54;9.68;;;6.70;;
63534;SDS011;55128;50.230;18.944;2023-08-07T04:09:54;8.93;;;6.97;;
63534;SDS011;55128;50.230;18.944;2023-08-07T04:14:55;7.57;;;6.88;;
63534;SDS011;55128;50.230;18.944;2023-08-07T04:19:55;7.70;;;7.00;;
63534;SDS011;55128;50.230;18.944;2023-08-07T04:24:55;17.03;;;15.40;;
63534;SDS011;55128;50.230;18.944;2023-08-07T04:29:56;7.30;;;6.60;;
63534;SDS011;55128;50.230;18.944;2023-08-07T04:34:56;7.32;;;6.20;;
63534;SDS011;55128;50.230;18.944;2023-08-07T04:39:56;7.15;;;6.32;;
63534;SDS011;55128;50.230;18.944;2023-08-07T04:44:57;7.50;;;5.80;;
63534;SDS011;55128;50.230;18.944;2023-08-07T04:49:57;5.53;;;5.03;;
63534;SDS011;55128;50.230;18.944;2023-08-07T04:54:57;5.25;;;4.75;;
63534;SDS011;55128;50.230;18.944;2023-08-07T04:59:58;5.57;;;4.93;;
63534;SDS011;55128;50.230;18.944;2023-08-07T05:04:58;6.13;;;4.65;;
63534;SDS011;55128;50.230;18.944;2023-08-07T05:09:58;4.90;;;3.42;;
63534;SDS011;55128;50.230;18.944;2023-08-07T05:14:59;3.53;;;3.15;;
63534;SDS011;55128;50.230;18.944;2023-08-07T05:20:00;4.40;;;3.53;;
63534;SDS011;55128;50.230;18.944;2023-08-07T05:25:00;3.28;;;2.92;;
63534;SDS011;55128;50.230;18.944;2023-08-07T05:30:00;3.67;;;2.60;;
63534;SDS011;55128;50.230;18.944;2023-08-07T05:35:01;2.75;;;1.92;;
63534;SDS011;55128;50.230;18.944;2023-08-07T05:40:02;5.63;;;2.30;;
63534;SDS011;55128;50.230;18.944;2023-08-07T05:45:03;2.72;;;1.48;;
63534;SDS011;55128;50.230;18.944;2023-08-07T05:50:04;2.67;;;1.30;;
63534;SDS011;55128;50.230;18.944;2023-08-07T05:55:05;2.00;;;1.80;;
63534;SDS011;55128;50.230;18.944;2023-08-07T06:00:05;2.55;;;2.00;;
63534;SDS011;55128;50.230;18.944;2023-08-07T06:05:07;2.53;;;2.00;;
63534;SDS011;55128;50.230;18.944;2023-08-07T06:10:09;3.42;;;1.88;;
63534;SDS011;55128;50.230;18.944;2023-08-07T06:15:09;2.50;;;1.88;;
63534;SDS011;55128;50.230;18.944;2023-08-07T06:20:10;3.05;;;1.77;;
63534;SDS011;55128;50.230;18.944;2023-08-07T06:25:12;2.30;;;1.90;;
63534;SDS011;55128;50.230;18.944;2023-08-07T06:30:12;2.47;;;1.40;;
63534;SDS011;55128;50.230;18.944;2023-08-07T06:35:14;2.10;;;1.80;;
63534;SDS011;55128;50.230;18.944;2023-08-07T06:40:14;3.07;;;1.90;;
63534;SDS011;55128;50.230;18.944;2023-08-07T06:45:14;3.38;;;1.65;;
63534;SDS011;55128;50.230;18.944;2023-08-07T06:50:15;2.65;;;1.95;;
63534;SDS011;55128;50.230;18.944;2023-08-07T06:55:15;2.13;;;1.53;;
63534;SDS011;55128;50.230;18.944;2023-08-07T07:00:15;2.67;;;1.63;;
63534;SDS011;55128;50.230;18.944;2023-08-07T07:05:16;2.90;;;2.28;;
63534;SDS011;55128;50.230;18.944;2023-08-07T07:10:17;3.58;;;1.35;;
63534;SDS011;55128;50.230;18.944;2023-08-07T07:15:17;3.28;;;2.53;;
63534;SDS011;55128;50.230;18.944;2023-08-07T07:20:18;2.40;;;1.80;;
63534;SDS011;55128;50.230;18.944;2023-08-07T07:25:18;2.67;;;2.00;;
63534;SDS011;55128;50.230;18.944;2023-08-07T07:30:18;3.30;;;1.70;;
63534;SDS011;55128;50.230;18.944;2023-08-07T07:35:19;3.72;;;1.80;;
63534;SDS011;55128;50.230;18.944;2023-08-07T07:40:19;2.63;;;2.00;;
63534;SDS011;55128;50.230;18.944;2023-08-07T07:45:19;2.40;;;2.20;;
63534;SDS011;55128;50.230;18.944;2023-08-07T07:50:20;4.78;;;2.00;;
63534;SDS011;55128;50.230;18.944;2023-08-07T07:55:20;3.53;;;1.93;;
63534;SDS011;55128;50.230;18.944;2023-08-07T08:00:21;2.77;;;1.60;;
63534;SDS011;55128;50.230;18.944;2023-08-07T08:05:26;2.55;;;1.40;;
63534;SDS011;55128;50.230;18.944;2023-08-07T08:10:26;1.88;;;1.10;;
63534;SDS011;55128;50.230;18.944;2023-08-07T08:15:27;2.03;;;1.23;;
63534;SDS011;55128;50.230;18.944;2023-08-07T08:20:27;2.33;;;1.42;;
63534;SDS011;55128;50.230;18.944;2023-08-07T08:25:30;1.75;;;1.50;;
63534;SDS011;55128;50.230;18.944;2023-08-07T08:30:32;2.30;;;1.45;;
63534;SDS011;55128;50.230;18.944;2023-08-07T08:35:32;1.77;;;1.43;;
63534;SDS011;55128;50.230;18.944;2023-08-07T08:40:33;3.33;;;1.20;;
63534;SDS011;55128;50.230;18.944;2023-08-07T08:45:34;1.63;;;1.30;;
63534;SDS011;55128;50.230;18.944;2023-08-07T08:55:39;2.42;;;1.25;;
63534;SDS011;55128;50.230;18.944;2023-08-07T09:00:42;1.95;;;1.15;;
63534;SDS011;55128;50.230;18.944;2023-08-07T09:05:43;2.50;;;1.10;;
63534;SDS011;55128;50.230;18.944;2023-08-07T09:10:43;2.40;;;1.15;;
63534;SDS011;55128;50.230;18.944;2023-08-07T09:15:44;6.45;;;1.60;;
63534;SDS011;55128;50.230;18.944;2023-08-07T09:20:50;3.05;;;1.40;;
63534;SDS011;55128;50.230;18.944;2023-08-07T09:26:04;2.45;;;1.42;;
63534;SDS011;55128;50.230;18.944;2023-08-07T09:31:08;1.67;;;1.38;;
63534;SDS011;55128;50.230;18.944;2023-08-07T09:36:09;2.72;;;1.42;;
63534;SDS011;55128;50.230;18.944;2023-08-07T09:41:09;2.23;;;1.50;;
63534;SDS011;55128;50.230;18.944;2023-08-07T09:46:09;3.83;;;1.50;;
63534;SDS011;55128;50.230;18.944;2023-08-07T09:51:10;2.95;;;1.15;;
63534;SDS011;55128;50.230;18.944;2023-08-07T09:56:11;1.95;;;1.33;;
63534;SDS011;55128;50.230;18.944;2023-08-07T10:01:12;2.53;;;1.40;;
63534;SDS011;55128;50.230;18.944;2023-08-07T10:06:17;2.50;;;1.40;;
63534;SDS011;55128;50.230;18.944;2023-08-07T10:11:18;2.55;;;1.30;;
63534;SDS011;55128;50.230;18.944;2023-08-07T10:16:20;2.67;;;1.42;;
63534;SDS011;55128;50.230;18.944;2023-08-07T10:21:20;1.70;;;1.30;;
63534;SDS011;55128;50.230;18.944;2023-08-07T10:26:22;3.35;;;0.98;;
63534;SDS011;55128;50.230;18.944;2023-08-07T10:31:24;2.78;;;1.60;;
63534;SDS011;55128;50.230;18.944;2023-08-07T10:36:31;2.97;;;1.85;;
63534;SDS011;55128;50.230;18.944;2023-08-07T10:41:37;2.83;;;1.90;;
63534;SDS011;55128;50.230;18.944;2023-08-07T10:46:48;2.72;;;1.70;;
63534;SDS011;55128;50.230;18.944;2023-08-07T10:51:49;2.90;;;2.10;;
63534;SDS011;55128;50.230;18.944;2023-08-07T10:56:53;2.65;;;2.00;;
63534;SDS011;55128;50.230;18.944;2023-08-07T11:01:57;2.85;;;2.30;;
63534;SDS011;55128;50.230;18.944;2023-08-07T11:06:58;3.25;;;2.63;;
63534;SDS011;55128;50.230;18.944;2023-08-07T11:11:59;4.37;;;2.63;;
63534;SDS011;55128;50.230;18.944;2023-08-07T11:16:59;3.60;;;2.97;;
63534;SDS011;55128;50.230;18.944;2023-08-07T11:22:00;3.80;;;3.10;;
63534;SDS011;55128;50.230;18.944;2023-08-07T11:27:01;3.60;;;2.53;;
63534;SDS011;55128;50.230;18.944;2023-08-07T11:32:02;3.45;;;2.33;;
63534;SDS011;55128;50.230;18.944;2023-08-07T11:37:03;6.35;;;3.78;;
63534;SDS011;55128;50.230;18.944;2023-08-07T11:42:03;3.42;;;2.38;;
63534;SDS011;55128;50.230;18.944;2023-08-07T11:47:06;3.25;;;2.50;;
63534;SDS011;55128;50.230;18.944;2023-08-07T11:52:06;3.92;;;2.53;;
63534;SDS011;55128;50.230;18.944;2023-08-07T11:57:16;3.97;;;2.90;;
63534;SDS011;55128;50.230;18.944;2023-08-07T12:02:22;3.70;;;2.55;;
63534;SDS011;55128;50.230;18.944;2023-08-07T12:07:24;3.20;;;2.42;;
63534;SDS011;55128;50.230;18.944;2023-08-07T12:12:26;3.22;;;2.55;;
63534;SDS011;55128;50.230;18.944;2023-08-07T12:17:30;15.18;;;13.57;;
63534;SDS011;55128;50.230;18.944;2023-08-07T12:27:31;3.67;;;2.70;;
63534;SDS011;55128;50.230;18.944;2023-08-07T12:32:35;4.38;;;3.28;;
63534;SDS011;55128;50.230;18.944;2023-08-07T12:37:36;3.65;;;2.95;;
63534;SDS011;55128;50.230;18.944;2023-08-07T12:42:36;5.30;;;2.87;;
63534;SDS011;55128;50.230;18.944;2023-08-07T12:47:37;4.63;;;2.93;;
63534;SDS011;55128;50.230;18.944;2023-08-07T12:52:37;4.07;;;2.60;;
63534;SDS011;55128;50.230;18.944;2023-08-07T12:57:40;3.65;;;2.55;;
63534;SDS011;55128;50.230;18.944;2023-08-07T13:02:42;3.20;;;2.90;;
63534;SDS011;55128;50.230;18.944;2023-08-07T13:07:43;3.78;;;2.50;;
63534;SDS011;55128;50.230;18.944;2023-08-07T13:12:44;5.33;;;3.07;;
63534;SDS011;55128;50.230;18.944;2023-08-07T13:17:47;4.15;;;2.90;;
63534;SDS011;55128;50.230;18.944;2023-08-07T13:22:47;3.40;;;2.73;;
63534;SDS011;55128;50.230;18.944;2023-08-07T13:27:47;5.35;;;2.90;;
63534;SDS011;55128;50.230;18.944;2023-08-07T13:32:48;3.25;;;2.72;;
63534;SDS011;55128;50.230;18.944;2023-08-07T13:37:48;5.45;;;3.22;;
63534;SDS011;55128;50.230;18.944;2023-08-07T13:42:48;3.63;;;2.97;;
63534;SDS011;55128;50.230;18.944;2023-08-07T13:47:49;3.83;;;2.80;;
63534;SDS011;55128;50.230;18.944;2023-08-07T13:52:49;4.45;;;3.08;;
63534;SDS011;55128;50.230;18.944;2023-08-07T13:57:49;5.15;;;3.50;;
63534;SDS011;55128;50.230;18.944;2023-08-07T14:02:49;4.40;;;3.70;;
63534;SDS011;55128;50.230;18.944;2023-08-07T14:07:50;3.45;;;2.97;;
63534;SDS011;55128;50.230;18.944;2023-08-07T14:12:50;3.47;;;3.17;;
63534;SDS011;55128;50.230;18.944;2023-08-07T14:17:51;4.85;;;3.47;;
63534;SDS011;55128;50.230;18.944;2023-08-07T14:22:52;3.90;;;3.30;;
63534;SDS011;55128;50.230;18.944;2023-08-07T14:27:52;4.90;;;3.35;;
63534;SDS011;55128;50.230;18.944;2023-08-07T14:32:53;4.88;;;3.25;;
63534;SDS011;55128;50.230;18.944;2023-08-07T14:37:54;6.82;;;2.70;;
63534;SDS011;55128;50.230;18.944;2023-08-07T14:42:54;4.23;;;2.50;;
63534;SDS011;55128;50.230;18.944;2023-08-07T14:47:54;3.47;;;2.40;;
63534;SDS011;55128;50.230;18.944;2023-08-07T14:52:55;3.92;;;2.75;;
63534;SDS011;55128;50.230;18.944;2023-08-07T14:57:55;3.53;;;2.45;;
63534;SDS011;55128;50.230;18.944;2023-08-07T15:02:56;3.83;;;2.60;;
63534;SDS011;55128;50.230;18.944;2023-08-07T15:07:59;3.22;;;2.35;;
63534;SDS011;55128;50.230;18.944;2023-08-07T15:13:00;5.13;;;2.78;;
63534;SDS011;55128;50.230;18.944;2023-08-07T15:18:01;5.78;;;3.30;;
63534;SDS011;55128;50.230;18.944;2023-08-07T15:23:03;6.05;;;3.03;;
63534;SDS011;55128;50.230;18.944;2023-08-07T15:28:04;3.95;;;3.40;;
63534;SDS011;55128;50.230;18.944;2023-08-07T15:33:05;5.78;;;3.42;;
63534;SDS011;55128;50.230;18.944;2023-08-07T15:38:06;5.47;;;3.37;;
63534;SDS011;55128;50.230;18.944;2023-08-07T15:43:09;5.90;;;3.30;;
63534;SDS011;55128;50.230;18.944;2023-08-07T15:48:12;5.35;;;2.80;;
63534;SDS011;55128;50.230;18.944;2023-08-07T15:53:13;4.90;;;3.00;;
63534;SDS011;55128;50.230;18.944;2023-08-07T15:58:13;5.25;;;3.40;;
63534;SDS011;55128;50.230;18.944;2023-08-07T16:03:14;5.47;;;4.00;;
63534;SDS011;55128;50.230;18.944;2023-08-07T16:08:14;5.40;;;3.63;;
63534;SDS011;55128;50.230;18.944;2023-08-07T16:13:15;4.72;;;3.40;;
63534;SDS011;55128;50.230;18.944;2023-08-07T16:18:15;4.13;;;3.25;;
63534;SDS011;55128;50.230;18.944;2023-08-07T16:23:15;4.00;;;3.05;;
63534;SDS011;55128;50.230;18.944;2023-08-07T16:28:16;5.28;;;2.83;;
63534;SDS011;55128;50.230;18.944;2023-08-07T16:33:16;6.30;;;3.58;;
63534;SDS011;55128;50.230;18.944;2023-08-07T16:38:17;4.20;;;3.25;;
63534;SDS011;55128;50.230;18.944;2023-08-07T16:43:18;4.38;;;3.75;;
63534;SDS011;55128;50.230;18.944;2023-08-07T16:48:19;5.13;;;4.63;;
63534;SDS011;55128;50.230;18.944;2023-08-07T16:53:19;4.23;;;3.50;;
63534;SDS011;55128;50.230;18.944;2023-08-07T16:58:20;4.20;;;3.80;;
63534;SDS011;55128;50.230;18.944;2023-08-07T17:03:20;6.70;;;3.63;;
63534;SDS011;55128;50.230;18.944;2023-08-07T17:08:20;4.23;;;3.40;;
63534;SDS011;55128;50.230;18.944;2023-08-07T17:13:21;2.90;;;2.60;;
63534;SDS011;55128;50.230;18.944;2023-08-07T17:18:23;3.90;;;2.85;;
63534;SDS011;55128;50.230;18.944;2023-08-07T17:23:25;4.07;;;2.43;;
63534;SDS011;55128;50.230;18.944;2023-08-07T17:28:25;5.05;;;2.85;;
63534;SDS011;55128;50.230;18.944;2023-08-07T17:33:26;3.47;;;2.40;;
63534;SDS011;55128;50.230;18.944;2023-08-07T17:38:26;5.13;;;3.08;;
63534;SDS011;55128;50.230;18.944;2023-08-07T17:43:28;4.25;;;3.00;;
63534;SDS011;55128;50.230;18.944;2023-08-07T17:48:28;4.82;;;3.28;;
63534;SDS011;55128;50.230;18.944;2023-08-07T17:53:28;6.07;;;3.27;;
63534;SDS011;55128;50.230;18.944;2023-08-07T17:58:29;5.53;;;3.10;;
63534;SDS011;55128;50.230;18.944;2023-08-07T18:03:29;3.80;;;3.13;;
63534;SDS011;55128;50.230;18.944;2023-08-07T18:08:29;3.80;;;3.27;;
63534;SDS011;55128;50.230;18.944;2023-08-07T18:13:30;6.10;;;3.57;;
63534;SDS011;55128;50.230;18.944;2023-08-07T18:18:30;4.63;;;3.27;;
63534;SDS011;55128;50.230;18.944;2023-08-07T18:23:30;3.83;;;3.17;;
63534;SDS011;55128;50.230;18.944;2023-08-07T18:28:32;4.53;;;3.45;;
63534;SDS011;55128;50.230;18.944;2023-08-07T18:33:32;5.35;;;3.33;;
63534;SDS011;55128;50.230;18.944;2023-08-07T18:38:33;6.45;;;3.75;;
63534;SDS011;55128;50.230;18.944;2023-08-07T18:43:34;4.32;;;3.60;;
63534;SDS011;55128;50.230;18.944;2023-08-07T18:48:34;4.47;;;3.88;;
63534;SDS011;55128;50.230;18.944;2023-08-07T18:53:34;7.40;;;4.13;;
63534;SDS011;55128;50.230;18.944;2023-08-07T18:58:34;5.45;;;4.95;;
63534;SDS011;55128;50.230;18.944;2023-08-07T19:03:35;6.43;;;5.47;;
63534;SDS011;55128;50.230;18.944;2023-08-07T19:08:36;5.60;;;4.88;;
63534;SDS011;55128;50.230;18.944;2023-08-07T19:13:38;5.68;;;4.65;;
63534;SDS011;55128;50.230;18.944;2023-08-07T19:18:38;6.80;;;3.80;;
63534;SDS011;55128;50.230;18.944;2023-08-07T19:23:39;4.07;;;3.28;;
63534;SDS011;55128;50.230;18.944;2023-08-07T19:28:39;6.35;;;3.33;;
63534;SDS011;55128;50.230;18.944;2023-08-07T19:33:39;3.88;;;3.35;;
63534;SDS011;55128;50.230;18.944;2023-08-07T19:38:40;4.50;;;3.05;;
63534;SDS011;55128;50.230;18.944;2023-08-07T19:43:41;4.45;;;2.90;;
63534;SDS011;55128;50.230;18.944;2023-08-07T19:48:42;5.07;;;2.65;;
63534;SDS011;55128;50.230;18.944;2023-08-07T19:53:42;4.47;;;2.73;;
63534;SDS011;55128;50.230;18.944;2023-08-07T19:58:43;4.37;;;2.63;;
63534;SDS011;55128;50.230;18.944;2023-08-07T20:03:43;2.97;;;2.28;;
63534;SDS011;55128;50.230;18.944;2023-08-07T20:08:44;2.83;;;2.10;;
63534;SDS011;55128;50.230;18.944;2023-08-07T20:13:44;3.00;;;2.30;;
63534;SDS011;55128;50.230;18.944;2023-08-07T20:18:45;3.22;;;2.08;;
63534;SDS011;55128;50.230;18.944;2023-08-07T20:23:45;3.83;;;1.90;;
63534;SDS011;55128;50.230;18.944;2023-08-07T20:28:45;2.80;;;1.98;;
63534;SDS011;55128;50.230;18.944;2023-08-07T20:33:46;3.45;;;1.58;;
63534;SDS011;55128;50.230;18.944;2023-08-07T20:38:46;3.20;;;1.50;;
63534;SDS011;55128;50.230;18.944;2023-08-07T20:43:47;6.67;;;1.60;;
63534;SDS011;55128;50.230;18.944;2023-08-07T20:48:48;2.85;;;1.75;;
63534;SDS011;55128;50.230;18.944;2023-08-07T20:53:50;2.45;;;1.50;;
63534;SDS011;55128;50.230;18.944;2023-08-07T20:58:51;3.25;;;1.80;;
63534;SDS011;55128;50.230;18.944;2023-08-07T21:03:51;3.03;;;2.00;;
63534;SDS011;55128;50.230;18.944;2023-08-07T21:08:51;3.07;;;2.03;;
63534;SDS011;55128;50.230;18.944;2023-08-07T21:13:52;3.37;;;2.47;;
63534;SDS011;55128;50.230;18.944;2023-08-07T21:18:52;4.13;;;3.00;;
63534;SDS011;55128;50.230;18.944;2023-08-07T21:23:52;4.13;;;2.95;;
63534;SDS011;55128;50.230;18.944;2023-08-07T21:28:53;4.00;;;2.92;;
63534;SDS011;55128;50.230;18.944;2023-08-07T21:33:54;3.60;;;2.88;;
63534;SDS011;55128;50.230;18.944;2023-08-07T21:38:54;5.47;;;2.80;;
63534;SDS011;55128;50.230;18.944;2023-08-07T21:43:57;3.20;;;2.47;;
63534;SDS011;55128;50.230;18.944;2023-08-07T21:48:57;4.23;;;2.70;;
63534;SDS011;55128;50.230;18.944;2023-08-07T21:53:58;2.30;;;2.00;;
63534;SDS011;55128;50.230;18.944;2023-08-07T21:58:58;3.60;;;1.90;;
63534;SDS011;55128;50.230;18.944;2023-08-07T22:03:58;2.35;;;1.63;;
63534;SDS011;55128;50.230;18.944;2023-08-07T22:08:59;2.83;;;2.10;;
63534;SDS011;55128;50.230;18.944;2023-08-07T22:13:59;4.70;;;1.87;;
63534;SDS011;55128;50.230;18.944;2023-08-07T22:18:59;2.10;;;1.67;;
63534;SDS011;55128;50.230;18.944;2023-08-07T22:24:00;3.83;;;2.13;;
63534;SDS011;55128;50.230;18.944;2023-08-07T22:29:00;2.73;;;2.30;;
63534;SDS011;55128;50.230;18.944;2023-08-07T22:34:00;2.47;;;1.60;;
63534;SDS011;55128;50.230;18.944;2023-08-07T22:39:01;3.65;;;1.80;;
63534;SDS011;55128;50.230;18.944;2023-08-07T22:44:01;2.55;;;1.38;;
63534;SDS011;55128;50.230;18.944;2023-08-07T22:49:02;2.50;;;1.50;;
63534;SDS011;55128;50.230;18.944;2023-08-07T22:54:02;2.53;;;1.40;;
63534;SDS011;55128;50.230;18.944;2023-08-07T22:59:02;4.13;;;1.30;;
63534;SDS011;55128;50.230;18.944;2023-08-07T23:04:03;2.97;;;1.10;;
63534;SDS011;55128;50.230;18.944;2023-08-07T23:09:03;4.03;;;1.20;;
63534;SDS011;55128;50.230;18.944;2023-08-07T23:14:03;2.95;;;1.08;;
63534;SDS011;55128;50.230;18.944;2023-08-07T23:19:04;4.07;;;1.23;;
63534;SDS011;55128;50.230;18.944;2023-08-07T23:24:04;2.73;;;0.90;;
63534;SDS011;55128;50.230;18.944;2023-08-07T23:29:05;4.45;;;1.08;;
63534;SDS011;55128;50.230;18.944;2023-08-07T23:34:06;2.65;;;0.88;;
63534;SDS011;55128;50.230;18.944;2023-08-07T23:39:06;0.83;;;0.53;;
63534;SDS011;55128;50.230;18.944;2023-08-07T23:44:07;1.85;;;0.80;;
63534;SDS011;55128;50.230;18.944;2023-08-07T23:49:08;3.10;;;0.70;;
63534;SDS011;55128;50.230;18.944;2023-08-07T23:54:08;2.53;;;0.80;;
63534;SDS011;55128;50.230;18.944;2023-08-07T23:59:09;2.30;;;0.63;;
